createdAt,value
2018-07-03T00:01:17.830Z,7.87
2018-07-03T00:03:47.191Z,8.23
2018-07-03T00:06:16.384Z,8.50
2018-07-03T00:08:45.766Z,7.33
2018-07-03T00:11:14.849Z,7.43
2018-07-03T00:13:44.166Z,6.83
2018-07-03T00:17:17.313Z,7.30
2018-07-03T00:19:48.562Z,7.60
2018-07-03T00:22:18.337Z,7.43
2018-07-03T00:24:48.128Z,7.10
2018-07-03T00:27:17.958Z,6.53
2018-07-03T00:29:47.189Z,6.50
2018-07-03T00:32:16.381Z,6.47
2018-07-03T00:34:45.575Z,6.17
2018-07-03T00:37:14.771Z,6.50
2018-07-03T00:39:44.014Z,6.93
2018-07-03T00:42:13.140Z,6.70
2018-07-03T00:44:42.319Z,7.37
2018-07-03T00:47:11.571Z,6.63
2018-07-03T00:49:41.437Z,6.77
2018-07-03T00:52:10.655Z,7.40
2018-07-03T00:54:39.880Z,6.70
2018-07-03T00:57:09.128Z,7.80
2018-07-03T00:59:48.222Z,7.53
2018-07-03T01:02:17.311Z,8.10
2018-07-03T01:04:46.502Z,8.03
2018-07-03T01:07:15.725Z,7.43
2018-07-03T01:09:52.211Z,7.87
2018-07-03T01:12:21.375Z,8.33
2018-07-03T01:14:50.668Z,7.87
2018-07-03T01:17:19.821Z,7.43
2018-07-03T01:19:49.049Z,6.30
2018-07-03T01:22:18.415Z,6.93
2018-07-03T01:24:47.548Z,11.13
2018-07-03T01:27:16.518Z,7.90
2018-07-03T01:29:45.710Z,9.30
2018-07-03T01:32:15.483Z,10.43
2018-07-03T01:34:44.763Z,10.40
2018-07-03T01:37:13.686Z,10.63
2018-07-03T01:39:42.839Z,12.13
2018-07-03T01:42:12.150Z,12.90
2018-07-03T01:44:41.455Z,13.77
2018-07-03T01:47:10.670Z,13.00
2018-07-03T01:49:40.433Z,12.40
2018-07-03T01:52:09.725Z,12.87
2018-07-03T01:54:38.843Z,12.47
2018-07-03T01:57:09.202Z,12.10
2018-07-03T01:59:38.327Z,12.50
2018-07-03T02:02:07.444Z,11.47
2018-07-03T02:04:36.901Z,12.40
2018-07-03T02:07:06.340Z,11.00
2018-07-03T02:09:35.451Z,11.50
2018-07-03T02:12:04.899Z,10.33
2018-07-03T02:14:34.033Z,11.07
2018-07-03T02:17:03.165Z,10.93
2018-07-03T02:19:32.440Z,11.13
2018-07-03T02:22:01.640Z,9.77
2018-07-03T02:24:30.752Z,10.23
2018-07-03T02:27:00.142Z,9.27
2018-07-03T02:29:30.091Z,9.90
2018-07-03T02:31:59.285Z,10.87
2018-07-03T02:34:28.380Z,10.57
2018-07-03T02:36:57.223Z,7.17
2018-07-03T02:39:26.322Z,5.70
2018-07-03T02:41:55.672Z,6.83
2018-07-03T02:44:24.848Z,6.10
2018-07-03T02:46:54.108Z,6.30
2018-07-03T02:49:23.514Z,6.47
2018-07-03T02:51:52.728Z,6.17
2018-07-03T02:54:22.048Z,6.77
2018-07-03T02:56:51.411Z,6.67
2018-07-03T02:59:20.492Z,5.80
2018-07-03T03:01:49.711Z,5.20
2018-07-03T03:04:19.020Z,5.13
2018-07-03T03:06:48.264Z,5.00
2018-07-03T03:09:17.465Z,4.70
2018-07-03T03:11:46.744Z,4.20
2018-07-03T03:14:16.001Z,4.40
2018-07-03T03:16:45.178Z,4.00
2018-07-03T03:19:14.305Z,4.17
2018-07-03T03:21:43.596Z,4.13
2018-07-03T03:24:12.805Z,4.27
2018-07-03T03:26:41.990Z,4.07
2018-07-03T03:29:11.086Z,4.00
2018-07-03T03:31:40.284Z,4.10
2018-07-03T03:34:09.400Z,4.00
2018-07-03T03:36:38.555Z,3.67
2018-07-03T03:39:08.581Z,3.23
2018-07-03T03:41:37.805Z,3.33
2018-07-03T03:44:06.975Z,3.33
2018-07-03T03:46:36.160Z,3.10
2018-07-03T03:49:05.314Z,3.20
2018-07-03T03:51:34.599Z,3.20
2018-07-03T03:54:04.050Z,3.13
2018-07-03T03:56:33.265Z,3.30
2018-07-03T03:59:02.472Z,2.83
2018-07-03T04:01:31.672Z,3.10
2018-07-03T04:04:00.831Z,3.73
2018-07-03T04:06:29.933Z,3.30
2018-07-03T04:08:58.718Z,3.00
2018-07-03T04:11:27.834Z,4.70
2018-07-03T04:13:56.954Z,2.63
2018-07-03T04:16:26.146Z,2.60
2018-07-03T04:18:55.407Z,2.60
2018-07-03T04:21:24.571Z,2.63
2018-07-03T04:23:53.955Z,2.57
2018-07-03T04:26:23.087Z,2.50
2018-07-03T04:28:52.321Z,2.23
2018-07-03T04:31:21.769Z,1.93
2018-07-03T04:33:51.012Z,2.30
2018-07-03T04:36:20.733Z,2.00
2018-07-03T04:38:50.646Z,1.97
2018-07-03T04:41:19.839Z,1.90
2018-07-03T04:43:49.163Z,2.10
2018-07-03T04:46:19.364Z,1.80
2018-07-03T04:48:49.464Z,1.80
2018-07-03T04:51:18.551Z,2.10
2018-07-03T04:53:47.930Z,1.77
2018-07-03T04:56:17.016Z,1.57
2018-07-03T04:58:46.311Z,1.70
2018-07-03T05:01:15.547Z,2.27
2018-07-03T05:03:44.758Z,2.30
2018-07-03T05:06:14.122Z,1.50
2018-07-03T05:08:43.316Z,1.60
2018-07-03T05:11:12.573Z,1.33
2018-07-03T05:13:41.788Z,1.50
2018-07-03T05:16:11.114Z,1.37
2018-07-03T05:18:40.327Z,1.70
2018-07-03T05:21:09.509Z,1.60
2018-07-03T05:23:38.703Z,2.07
2018-07-03T05:26:08.004Z,2.17
2018-07-03T05:28:37.126Z,1.50
2018-07-03T05:31:06.472Z,1.67
2018-07-03T05:33:35.597Z,1.30
2018-07-03T05:36:05.093Z,1.60
2018-07-03T05:38:34.312Z,1.40
2018-07-03T05:41:03.767Z,1.37
2018-07-03T05:43:33.183Z,1.60
2018-07-03T05:46:02.539Z,1.70
2018-07-03T05:48:31.856Z,1.40
2018-07-03T05:51:02.327Z,1.70
2018-07-03T05:53:31.505Z,1.20
2018-07-03T05:56:00.702Z,1.50
2018-07-03T05:58:29.808Z,1.30
2018-07-03T06:00:59.134Z,1.47
2018-07-03T06:03:28.319Z,1.40
2018-07-03T06:05:57.536Z,1.07
2018-07-03T06:08:26.742Z,1.10
2018-07-03T06:10:55.679Z,1.50
2018-07-03T06:13:24.917Z,1.33
2018-07-03T06:15:54.134Z,1.30
2018-07-03T06:18:23.423Z,1.30
2018-07-03T06:20:52.617Z,1.13
2018-07-03T06:23:21.965Z,1.40
2018-07-03T06:25:51.135Z,0.90
2018-07-03T06:28:20.339Z,1.27
2018-07-03T06:30:49.651Z,1.20
2018-07-03T06:33:18.910Z,1.30
2018-07-03T06:35:48.317Z,1.03
2018-07-03T06:38:17.755Z,1.27
2018-07-03T06:40:46.894Z,1.83
2018-07-03T06:43:16.133Z,1.23
2018-07-03T06:45:45.405Z,1.30
2018-07-03T06:48:14.572Z,1.53
2018-07-03T06:50:43.836Z,1.30
2018-07-03T06:53:13.051Z,1.03
2018-07-03T06:55:42.257Z,1.30
2018-07-03T06:58:11.447Z,1.23
2018-07-03T07:00:40.688Z,1.23
2018-07-03T07:03:09.979Z,1.20
2018-07-03T07:05:39.124Z,1.20
2018-07-03T07:08:08.370Z,1.20
2018-07-03T07:10:37.759Z,1.10
2018-07-03T07:13:07.182Z,1.33
2018-07-03T07:15:36.464Z,0.93
2018-07-03T07:18:05.930Z,1.20
2018-07-03T07:20:35.127Z,1.43
2018-07-03T07:23:05.060Z,1.20
2018-07-03T07:25:34.169Z,1.10
2018-07-03T07:28:03.451Z,1.30
2018-07-03T07:30:32.626Z,1.10
2018-07-03T07:33:01.883Z,1.10
2018-07-03T07:35:31.052Z,1.20
2018-07-03T07:38:00.418Z,1.20
2018-07-03T07:40:29.665Z,1.20
2018-07-03T07:42:58.862Z,1.10
2018-07-03T07:45:28.120Z,1.47
2018-07-03T07:47:57.490Z,1.30
2018-07-03T07:50:26.784Z,1.50
2018-07-03T07:52:56.085Z,0.97
2018-07-03T07:55:25.358Z,1.20
2018-07-03T07:57:54.515Z,1.37
2018-07-03T08:00:24.336Z,1.80
2018-07-03T08:02:53.505Z,1.40
2018-07-03T08:05:22.779Z,1.77
2018-07-03T08:07:52.141Z,1.40
2018-07-03T08:10:21.461Z,1.63
2018-07-03T08:12:50.956Z,1.60
2018-07-03T08:15:20.279Z,1.47
2018-07-03T08:17:49.232Z,1.90
2018-07-03T08:20:18.433Z,2.00
2018-07-03T08:22:47.793Z,1.80
2018-07-03T08:25:17.034Z,1.63
2018-07-03T08:27:47.033Z,2.17
2018-07-03T08:30:16.560Z,2.00
2018-07-03T08:32:45.923Z,2.20
2018-07-03T08:35:15.074Z,2.00
2018-07-03T08:37:44.289Z,1.87
2018-07-03T08:40:13.526Z,1.83
2018-07-03T08:42:42.722Z,2.17
2018-07-03T08:45:11.924Z,1.97
2018-07-03T08:47:41.101Z,2.20
2018-07-03T08:50:10.241Z,1.77
2018-07-03T08:52:39.643Z,2.07
2018-07-03T08:55:08.842Z,1.90
2018-07-03T08:57:38.083Z,2.00
2018-07-03T09:00:08.206Z,2.00
2018-07-03T09:02:37.592Z,2.43
2018-07-03T09:05:06.992Z,2.47
2018-07-03T09:07:36.333Z,2.20
2018-07-03T09:10:05.542Z,2.30
2018-07-03T09:12:34.673Z,2.40
2018-07-03T09:15:04.264Z,2.20
2018-07-03T09:17:33.375Z,2.30
2018-07-03T09:20:02.755Z,1.80
2018-07-03T09:22:32.656Z,2.30
2018-07-03T09:25:02.363Z,2.17
2018-07-03T09:27:32.580Z,2.10
2018-07-03T09:30:01.786Z,2.20
2018-07-03T09:32:31.094Z,2.20
2018-07-03T09:35:00.278Z,1.83
2018-07-03T09:37:29.436Z,1.97
2018-07-03T09:39:58.685Z,1.83
2018-07-03T09:42:28.008Z,2.12
2018-07-03T09:44:57.150Z,2.25
2018-07-03T09:47:26.846Z,2.40
2018-07-03T09:49:56.267Z,2.17
2018-07-03T09:52:25.492Z,1.85
2018-07-03T09:54:55.552Z,2.30
2018-07-03T09:57:24.676Z,2.30
2018-07-03T09:59:53.920Z,2.17
2018-07-03T10:02:24.096Z,2.07
2018-07-03T10:04:53.209Z,1.77
2018-07-03T10:07:22.036Z,2.27
2018-07-03T10:09:51.196Z,1.97
2018-07-03T10:12:20.874Z,1.73
2018-07-03T10:14:50.121Z,1.73
2018-07-03T10:17:19.365Z,1.90
2018-07-03T10:19:48.682Z,1.77
2018-07-03T10:22:18.826Z,1.77
2018-07-03T10:24:48.199Z,2.05
2018-07-03T10:27:17.278Z,2.03
2018-07-03T10:29:46.637Z,2.37
2018-07-03T10:32:15.833Z,2.40
2018-07-03T10:34:44.664Z,1.90
2018-07-03T10:37:13.788Z,2.10
2018-07-03T10:39:43.111Z,2.40
2018-07-03T10:42:14.016Z,2.33
2018-07-03T10:44:43.370Z,2.00
2018-07-03T10:47:12.483Z,2.47
2018-07-03T10:49:41.849Z,2.37
2018-07-03T10:52:10.990Z,1.70
2018-07-03T10:54:40.348Z,1.77
2018-07-03T10:57:09.615Z,1.97
2018-07-03T10:59:38.814Z,2.13
2018-07-03T11:02:08.063Z,2.00
2018-07-03T11:04:37.204Z,1.95
2018-07-03T11:07:06.986Z,2.00
2018-07-03T11:09:36.186Z,1.80
2018-07-03T11:12:05.980Z,1.67
2018-07-03T11:14:35.096Z,2.17
2018-07-03T11:17:04.372Z,1.90
2018-07-03T11:19:33.543Z,1.87
2018-07-03T11:22:02.748Z,2.10
2018-07-03T11:24:32.084Z,2.17
2018-07-03T11:27:01.361Z,1.60
2018-07-03T11:29:30.766Z,1.90
2018-07-03T11:31:59.962Z,1.80
2018-07-03T11:34:29.169Z,1.80
2018-07-03T11:36:58.394Z,1.90
2018-07-03T11:39:27.575Z,1.90
2018-07-03T11:41:56.723Z,2.25
2018-07-03T11:44:25.866Z,2.10
2018-07-03T11:46:55.281Z,2.50
2018-07-03T11:49:24.656Z,1.80
2018-07-03T11:51:53.840Z,2.00
2018-07-03T11:54:23.172Z,2.03
2018-07-03T11:56:52.407Z,2.27
2018-07-03T11:59:21.776Z,2.47
2018-07-03T12:01:51.143Z,2.10
2018-07-03T12:04:20.270Z,2.13
2018-07-03T12:06:49.455Z,2.23
2018-07-03T12:09:19.369Z,2.00
2018-07-03T12:11:48.602Z,1.90
2018-07-03T12:14:17.904Z,2.20
2018-07-03T12:16:47.264Z,2.13
2018-07-03T12:19:16.703Z,2.30
2018-07-03T12:21:45.820Z,2.43
2018-07-03T12:24:15.009Z,2.13
2018-07-03T12:26:44.317Z,2.07
2018-07-03T12:29:13.875Z,2.20
2018-07-03T12:31:43.224Z,2.00
2018-07-03T12:34:12.508Z,1.97
2018-07-03T12:36:41.926Z,1.90
2018-07-03T12:39:11.928Z,2.00
2018-07-03T12:41:41.157Z,2.40
2018-07-03T12:44:10.563Z,1.93
2018-07-03T12:46:39.762Z,2.13
2018-07-03T12:49:08.965Z,2.10
2018-07-03T12:51:38.084Z,1.90
2018-07-03T12:54:07.425Z,2.30
2018-07-03T12:56:36.676Z,2.30
2018-07-03T12:59:06.060Z,2.03
2018-07-03T13:01:35.195Z,1.97
2018-07-03T13:04:04.718Z,2.40
2018-07-03T13:06:33.950Z,2.23
2018-07-03T13:09:04.193Z,2.50
2018-07-03T13:11:33.393Z,2.30
2018-07-03T13:14:02.686Z,2.30
2018-07-03T13:16:31.981Z,2.20
2018-07-03T13:19:01.303Z,1.93
2018-07-03T13:21:30.537Z,2.10
2018-07-03T13:24:00.495Z,2.10
2018-07-03T13:26:30.074Z,2.10
2018-07-03T13:28:59.215Z,2.20
2018-07-03T13:31:28.487Z,2.20
2018-07-03T13:33:57.908Z,1.70
2018-07-03T13:36:27.212Z,2.10
2018-07-03T13:38:56.103Z,1.50
2018-07-03T13:41:25.269Z,2.10
2018-07-03T13:43:54.638Z,1.97
2018-07-03T13:46:24.098Z,2.10
2018-07-03T13:48:53.358Z,1.80
2018-07-03T13:51:22.984Z,2.00
2018-07-03T13:53:52.205Z,1.63
2018-07-03T13:56:21.442Z,1.90
2018-07-03T13:58:50.610Z,1.70
2018-07-03T14:01:19.845Z,1.97
2018-07-03T14:03:49.075Z,2.10
2018-07-03T14:06:18.324Z,1.87
2018-07-03T14:08:48.536Z,1.90
2018-07-03T14:11:17.730Z,1.93
2018-07-03T14:13:46.881Z,2.00
2018-07-03T14:16:16.094Z,2.10
2018-07-03T14:18:45.205Z,2.40
2018-07-03T14:21:14.958Z,2.10
2018-07-03T14:23:44.066Z,2.03
2018-07-03T14:26:13.315Z,1.97
2018-07-03T14:28:42.724Z,1.83
2018-07-03T14:31:12.371Z,2.10
2018-07-03T14:33:41.555Z,2.00
2018-07-03T14:36:11.243Z,2.00
2018-07-03T14:38:41.808Z,2.17
2018-07-03T14:41:11.434Z,2.30
2018-07-03T14:43:40.776Z,1.83
2018-07-03T14:46:10.037Z,2.10
2018-07-03T14:48:39.252Z,2.00
2018-07-03T14:51:08.633Z,2.07
2018-07-03T14:53:37.899Z,2.40
2018-07-03T14:56:07.200Z,1.83
2018-07-03T14:58:36.492Z,2.10
2018-07-03T15:01:05.790Z,2.10
2018-07-03T15:03:34.965Z,2.23
2018-07-03T15:06:04.319Z,1.77
2018-07-03T15:08:33.576Z,2.40
2018-07-03T15:11:02.840Z,1.97
2018-07-03T15:13:32.096Z,1.87
2018-07-03T15:16:01.202Z,1.80
2018-07-03T15:18:35.840Z,1.70
2018-07-03T15:21:04.957Z,2.13
2018-07-03T15:23:34.145Z,2.17
2018-07-03T15:26:03.337Z,1.90
2018-07-03T15:28:32.809Z,1.87
2018-07-03T15:31:01.947Z,2.00
2018-07-03T15:33:31.098Z,1.90
2018-07-03T15:36:00.404Z,2.37
2018-07-03T15:38:29.597Z,1.83
2018-07-03T15:40:58.937Z,1.83
2018-07-03T15:43:28.039Z,1.80
2018-07-03T15:45:57.174Z,1.87
2018-07-03T15:48:26.306Z,1.80
2018-07-03T15:50:55.595Z,1.77
2018-07-03T15:53:24.854Z,1.83
2018-07-03T15:55:54.009Z,2.20
2018-07-03T15:58:23.403Z,1.50
2018-07-03T16:00:52.636Z,1.90
2018-07-03T16:05:39.642Z,1.90
2018-07-03T16:08:20.107Z,2.00
2018-07-03T16:10:49.493Z,2.70
2018-07-03T16:13:18.790Z,1.80
2018-07-03T16:15:48.080Z,2.00
2018-07-03T16:18:18.143Z,2.17
2018-07-03T16:20:47.404Z,2.00
2018-07-03T16:23:17.081Z,2.10
2018-07-03T16:25:47.111Z,1.83
2018-07-03T16:28:16.441Z,1.97
2018-07-03T16:30:45.610Z,2.03
2018-07-03T16:33:14.889Z,2.17
2018-07-03T16:35:44.095Z,2.00
2018-07-03T16:38:13.375Z,1.87
2018-07-03T16:40:42.637Z,2.03
2018-07-03T16:43:11.793Z,2.03
2018-07-03T16:45:41.089Z,2.13
2018-07-03T16:48:10.452Z,2.00
2018-07-03T16:50:39.635Z,1.80
2018-07-03T16:53:09.038Z,2.13
2018-07-03T16:55:38.460Z,2.43
2018-07-03T16:58:07.663Z,2.47
2018-07-03T17:00:36.959Z,2.30
2018-07-03T17:03:06.141Z,2.30
2018-07-03T17:05:35.337Z,3.00
2018-07-03T17:08:04.804Z,2.10
2018-07-03T17:10:34.070Z,2.13
2018-07-03T17:13:03.334Z,2.30
2018-07-03T17:15:32.622Z,2.40
2018-07-03T17:18:01.768Z,2.70
2018-07-03T17:20:31.015Z,2.50
2018-07-03T17:23:00.106Z,2.30
2018-07-03T17:25:29.359Z,2.37
2018-07-03T17:27:58.609Z,2.00
2018-07-03T17:30:28.045Z,2.23
2018-07-03T17:32:57.235Z,2.47
2018-07-03T17:35:26.356Z,2.10
2018-07-03T17:37:55.572Z,3.10
2018-07-03T17:40:36.156Z,2.47
2018-07-03T17:44:15.678Z,2.57
2018-07-03T17:46:44.886Z,3.33
2018-07-03T17:49:14.103Z,2.40
2018-07-03T17:51:43.271Z,2.53
2018-07-03T17:54:12.473Z,3.00
2018-07-03T17:56:41.853Z,2.30
2018-07-03T17:59:10.776Z,2.83
2018-07-03T18:01:40.107Z,2.50
2018-07-03T18:04:10.250Z,2.57
2018-07-03T18:06:42.660Z,2.23
2018-07-03T18:09:12.996Z,2.63
2018-07-03T18:11:42.248Z,2.50
2018-07-03T18:14:11.469Z,2.77
2018-07-03T18:16:40.754Z,2.53
2018-07-03T18:19:44.688Z,2.73
2018-07-03T18:22:13.733Z,2.43
2018-07-03T18:24:43.244Z,2.47
2018-07-03T18:27:12.379Z,2.30
2018-07-03T18:29:41.414Z,2.43
2018-07-03T18:32:10.477Z,2.57
2018-07-03T18:34:39.671Z,2.43
2018-07-03T18:37:08.855Z,2.17
2018-07-03T18:39:38.471Z,2.27
2018-07-03T18:42:07.671Z,2.00
2018-07-03T18:44:36.877Z,2.50
2018-07-03T18:47:06.102Z,2.37
2018-07-03T18:49:35.460Z,2.47
2018-07-03T18:52:04.801Z,2.17
2018-07-03T18:54:34.140Z,2.10
2018-07-03T18:57:03.379Z,2.03
2018-07-03T18:59:32.555Z,2.20
2018-07-03T19:02:01.812Z,2.57
2018-07-03T19:04:31.140Z,2.47
2018-07-03T19:07:00.513Z,2.30
2018-07-03T19:09:29.804Z,2.53
2018-07-03T19:11:59.490Z,2.10
2018-07-03T19:14:28.649Z,2.63
2018-07-03T19:16:57.905Z,2.33
2018-07-03T19:19:27.067Z,2.63
2018-07-03T19:21:56.271Z,2.97
2018-07-03T19:24:25.219Z,3.13
2018-07-03T19:26:54.383Z,2.67
2018-07-03T19:29:23.790Z,2.90
2018-07-03T19:31:52.823Z,2.87
2018-07-03T19:34:22.437Z,2.83
2018-07-03T19:36:51.685Z,2.70
2018-07-03T19:39:20.973Z,2.50
2018-07-03T19:41:50.286Z,2.60
2018-07-03T19:44:19.457Z,3.00
2018-07-03T19:46:48.840Z,3.17
2018-07-03T19:49:17.862Z,2.80
2018-07-03T19:51:46.925Z,2.80
2018-07-03T19:54:16.173Z,2.70
2018-07-03T19:56:45.348Z,2.80
2018-07-03T19:59:14.512Z,2.90
2018-07-03T20:01:43.823Z,3.07
2018-07-03T20:04:12.984Z,2.80
2018-07-03T20:06:42.284Z,3.27
2018-07-03T20:09:12.694Z,3.40
2018-07-03T20:11:42.284Z,3.30
2018-07-03T20:14:11.166Z,3.47
2018-07-03T20:16:40.344Z,3.13
2018-07-03T20:19:15.881Z,3.23
2018-07-03T20:21:46.553Z,3.43
2018-07-03T20:24:16.644Z,3.60
2018-07-03T20:26:45.838Z,3.10
2018-07-03T20:29:15.183Z,3.20
2018-07-03T20:31:44.478Z,3.60
2018-07-03T20:34:13.369Z,3.30
2018-07-03T20:36:42.513Z,3.20
2018-07-03T20:39:12.076Z,3.10
2018-07-03T20:41:42.096Z,2.73
2018-07-03T20:44:11.387Z,2.90
2018-07-03T20:46:40.550Z,3.10
2018-07-03T20:49:09.739Z,3.37
2018-07-03T20:51:38.876Z,3.23
2018-07-03T20:54:08.243Z,3.10
2018-07-03T20:56:37.449Z,3.77
2018-07-03T20:59:06.696Z,3.67
2018-07-03T21:01:36.954Z,4.00
2018-07-03T21:04:06.509Z,4.00
2018-07-03T21:06:35.965Z,3.70
2018-07-03T21:09:07.394Z,3.70
2018-07-03T21:11:36.707Z,4.30
2018-07-03T21:14:06.543Z,4.60
2018-07-03T21:16:35.719Z,4.83
2018-07-03T21:19:05.027Z,5.27
2018-07-03T21:21:34.612Z,5.57
2018-07-03T21:24:04.032Z,5.47
2018-07-03T21:26:33.217Z,4.87
2018-07-03T21:29:02.420Z,4.70
2018-07-03T21:31:31.574Z,4.10
2018-07-03T21:34:00.702Z,4.67
2018-07-03T21:36:29.890Z,4.57
2018-07-03T21:38:59.066Z,4.50
2018-07-03T21:41:28.313Z,4.57
2018-07-03T21:43:57.459Z,4.80
2018-07-03T21:46:26.799Z,4.10
2018-07-03T21:48:55.976Z,4.03
2018-07-03T21:51:25.160Z,4.70
2018-07-03T21:53:54.391Z,4.53
2018-07-03T21:56:23.685Z,4.53
2018-07-03T21:58:53.049Z,5.40
2018-07-03T22:01:22.492Z,5.30
2018-07-03T22:03:51.716Z,5.90
2018-07-03T22:06:20.890Z,5.47
2018-07-03T22:08:50.825Z,5.10
2018-07-03T22:11:19.995Z,5.30
2018-07-03T22:13:49.176Z,4.97
2018-07-03T22:16:18.371Z,4.90
2018-07-03T22:18:47.560Z,5.20
2018-07-03T22:21:16.762Z,5.23
2018-07-03T22:23:46.120Z,4.37
2018-07-03T22:26:15.304Z,4.40
2018-07-03T22:28:44.513Z,4.20
2018-07-03T22:31:13.628Z,4.80
2018-07-03T22:33:42.905Z,4.73
2018-07-03T22:36:12.136Z,4.70
2018-07-03T22:38:41.485Z,4.87
2018-07-03T22:41:10.610Z,3.83
2018-07-03T22:43:39.741Z,4.00
2018-07-03T22:46:08.915Z,3.87
2018-07-03T22:48:38.268Z,3.40
2018-07-03T22:51:07.392Z,3.80
2018-07-03T22:53:36.880Z,4.40
2018-07-03T22:56:06.164Z,3.70
2018-07-03T22:58:35.912Z,4.13
2018-07-03T23:01:05.227Z,4.50
2018-07-03T23:03:34.582Z,4.87
2018-07-03T23:06:03.888Z,4.53
2018-07-03T23:08:33.055Z,5.07
2018-07-03T23:11:02.297Z,5.77
2018-07-03T23:13:31.388Z,5.63
2018-07-03T23:16:01.268Z,5.90
2018-07-03T23:18:30.592Z,4.90
2018-07-03T23:20:59.801Z,5.43
2018-07-03T23:23:28.921Z,5.03
2018-07-03T23:25:58.207Z,5.50
2018-07-03T23:28:27.033Z,5.50
2018-07-03T23:30:56.079Z,5.67
2018-07-03T23:33:25.257Z,5.43
2018-07-03T23:35:54.463Z,6.70
2018-07-03T23:38:23.681Z,6.17
2018-07-03T23:40:52.509Z,5.57
2018-07-03T23:43:21.705Z,5.93
2018-07-03T23:45:58.125Z,5.53
2018-07-03T23:48:38.387Z,5.40
2018-07-03T23:51:29.675Z,5.60
2018-07-03T23:54:09.995Z,6.27
2018-07-03T23:56:50.385Z,5.20
2018-07-03T23:59:30.688Z,5.17
